Terminal Aerodrome Forecast
Issued by NWS

Home | Current Version | Previous Version | Text Only | Print | Product List | Glossary On
Versions: 1 2 3 4 5 6 7 8 9 10 11 12 13 14
784
FTUS45 KABQ 281748 RRA
TAFAEG
TAF
KAEG 281748Z 2818/2918 01010KT P6SM SCT020 BKN045
     FM281930 30012G22KT P6SM VCTS BKN040CB BKN080
      TEMPO 2820/2823 VRB15G25KT -SHRA BKN035
     FM282300 33012G22KT P6SM VCSH SCT035 BKN070
     FM290600 33015G23KT 5SM RA BR BKN019 OVC030=

USA.gov is the U.S. government's official web portal to all federal, state and local government web resources and services.